sensor_id;sensor_type;location;lat;lon;timestamp;temperature;humidity
3330;DHT22;1677;49.576;10.990;2022-09-29T00:01:30;8.20;99.90
3330;DHT22;1677;49.576;10.990;2022-09-29T00:03:55;8.10;99.90
3330;DHT22;1677;49.576;10.990;2022-09-29T00:06:21;8.10;99.90
3330;DHT22;1677;49.576;10.990;2022-09-29T00:08:47;8.10;99.90
3330;DHT22;1677;49.576;10.990;2022-09-29T00:11:15;8.00;99.90
3330;DHT22;1677;49.576;10.990;2022-09-29T00:13:41;8.00;99.90
3330;DHT22;1677;49.576;10.990;2022-09-29T00:16:07;8.00;99.90
3330;DHT22;1677;49.576;10.990;2022-09-29T00:18:33;8.00;99.90
3330;DHT22;1677;49.576;10.990;2022-09-29T00:21:02;8.00;99.90
3330;DHT22;1677;49.576;10.990;2022-09-29T00:23:29;8.00;99.90
3330;DHT22;1677;49.576;10.990;2022-09-29T00:26:27;8.00;99.90
3330;DHT22;1677;49.576;10.990;2022-09-29T00:28:57;8.10;99.90
3330;DHT22;1677;49.576;10.990;2022-09-29T00:31:29;8.10;99.90
3330;DHT22;1677;49.576;10.990;2022-09-29T00:33:55;8.00;99.90
3330;DHT22;1677;49.576;10.990;2022-09-29T00:36:21;8.10;99.90
3330;DHT22;1677;49.576;10.990;2022-09-29T00:38:48;8.00;99.90
3330;DHT22;1677;49.576;10.990;2022-09-29T00:41:38;8.10;99.90
3330;DHT22;1677;49.576;10.990;2022-09-29T00:44:50;8.10;99.90
3330;DHT22;1677;49.576;10.990;2022-09-29T00:46:53;8.00;99.90
3330;DHT22;1677;49.576;10.990;2022-09-29T00:54:43;8.20;99.90
3330;DHT22;1677;49.576;10.990;2022-09-29T00:57:11;8.20;99.90
3330;DHT22;1677;49.576;10.990;2022-09-29T01:02:22;8.10;99.90
3330;DHT22;1677;49.576;10.990;2022-09-29T01:04:49;8.20;99.90
3330;DHT22;1677;49.576;10.990;2022-09-29T01:07:17;8.20;99.90
3330;DHT22;1677;49.576;10.990;2022-09-29T01:09:44;8.10;99.90
3330;DHT22;1677;49.576;10.990;2022-09-29T01:12:10;8.10;99.90
3330;DHT22;1677;49.576;10.990;2022-09-29T01:14:37;8.00;99.90
3330;DHT22;1677;49.576;10.990;2022-09-29T01:17:03;8.00;99.90
3330;DHT22;1677;49.576;10.990;2022-09-29T01:19:45;8.10;99.90
3330;DHT22;1677;49.576;10.990;2022-09-29T01:22:42;8.50;99.90
3330;DHT22;1677;49.576;10.990;2022-09-29T01:39:33;9.20;99.90
3330;DHT22;1677;49.576;10.990;2022-09-29T01:42:19;9.00;99.90
3330;DHT22;1677;49.576;10.990;2022-09-29T01:44:54;8.80;99.90
3330;DHT22;1677;49.576;10.990;2022-09-29T01:47:32;8.70;99.90
3330;DHT22;1677;49.576;10.990;2022-09-29T01:50:16;8.60;99.90
3330;DHT22;1677;49.576;10.990;2022-09-29T01:52:48;8.50;99.90
3330;DHT22;1677;49.576;10.990;2022-09-29T01:55:20;8.50;99.90
3330;DHT22;1677;49.576;10.990;2022-09-29T01:58:06;8.40;99.90
3330;DHT22;1677;49.576;10.990;2022-09-29T02:00:38;8.40;99.90
3330;DHT22;1677;49.576;10.990;2022-09-29T02:03:15;8.30;99.90
3330;DHT22;1677;49.576;10.990;2022-09-29T02:05:57;8.30;99.90
3330;DHT22;1677;49.576;10.990;2022-09-29T02:08:34;8.20;99.90
3330;DHT22;1677;49.576;10.990;2022-09-29T02:11:05;8.10;99.90
3330;DHT22;1677;49.576;10.990;2022-09-29T02:13:53;8.10;99.90
3330;DHT22;1677;49.576;10.990;2022-09-29T02:16:28;8.10;99.90
3330;DHT22;1677;49.576;10.990;2022-09-29T02:18:58;8.00;99.90
3330;DHT22;1677;49.576;10.990;2022-09-29T02:21:27;7.80;99.90
3330;DHT22;1677;49.576;10.990;2022-09-29T02:23:53;7.90;99.90
3330;DHT22;1677;49.576;10.990;2022-09-29T02:26:20;8.00;99.90
3330;DHT22;1677;49.576;10.990;2022-09-29T02:28:48;8.00;99.90
3330;DHT22;1677;49.576;10.990;2022-09-29T02:31:14;7.90;99.90
3330;DHT22;1677;49.576;10.990;2022-09-29T02:33:40;7.90;99.90
3330;DHT22;1677;49.576;10.990;2022-09-29T02:36:33;7.90;99.90
3330;DHT22;1677;49.576;10.990;2022-09-29T02:44:19;8.00;99.90
3330;DHT22;1677;49.576;10.990;2022-09-29T02:46:49;8.00;99.90
3330;DHT22;1677;49.576;10.990;2022-09-29T02:52:10;8.00;99.90
3330;DHT22;1677;49.576;10.990;2022-09-29T02:54:54;8.00;99.90
3330;DHT22;1677;49.576;10.990;2022-09-29T03:00:12;7.90;99.90
3330;DHT22;1677;49.576;10.990;2022-09-29T03:02:40;7.80;99.90
3330;DHT22;1677;49.576;10.990;2022-09-29T03:05:09;7.80;99.90
3330;DHT22;1677;49.576;10.990;2022-09-29T03:07:37;7.90;99.90
3330;DHT22;1677;49.576;10.990;2022-09-29T03:10:03;7.90;99.90
3330;DHT22;1677;49.576;10.990;2022-09-29T03:12:29;8.00;99.90
3330;DHT22;1677;49.576;10.990;2022-09-29T03:14:55;8.00;99.90
3330;DHT22;1677;49.576;10.990;2022-09-29T03:17:20;8.40;99.90
3330;DHT22;1677;49.576;10.990;2022-09-29T03:19:46;8.90;99.90
3330;DHT22;1677;49.576;10.990;2022-09-29T03:22:12;9.30;99.90
3330;DHT22;1677;49.576;10.990;2022-09-29T03:24:37;9.30;99.90
3330;DHT22;1677;49.576;10.990;2022-09-29T03:27:03;9.50;99.90
3330;DHT22;1677;49.576;10.990;2022-09-29T03:29:28;9.40;99.90
3330;DHT22;1677;49.576;10.990;2022-09-29T03:31:54;9.30;99.90
3330;DHT22;1677;49.576;10.990;2022-09-29T03:34:20;9.10;99.90
3330;DHT22;1677;49.576;10.990;2022-09-29T03:36:45;8.80;99.90
3330;DHT22;1677;49.576;10.990;2022-09-29T03:39:11;8.50;99.90
3330;DHT22;1677;49.576;10.990;2022-09-29T03:41:36;8.30;99.90
3330;DHT22;1677;49.576;10.990;2022-09-29T03:44:02;8.10;99.90
3330;DHT22;1677;49.576;10.990;2022-09-29T03:46:27;8.00;99.90
3330;DHT22;1677;49.576;10.990;2022-09-29T03:48:53;7.80;99.90
3330;DHT22;1677;49.576;10.990;2022-09-29T03:51:19;7.80;99.90
3330;DHT22;1677;49.576;10.990;2022-09-29T03:53:44;7.60;99.90
3330;DHT22;1677;49.576;10.990;2022-09-29T03:56:10;7.70;99.90
3330;DHT22;1677;49.576;10.990;2022-09-29T03:58:35;7.70;99.90
3330;DHT22;1677;49.576;10.990;2022-09-29T04:01:01;7.60;99.90
3330;DHT22;1677;49.576;10.990;2022-09-29T04:03:27;7.60;99.90
3330;DHT22;1677;49.576;10.990;2022-09-29T04:05:53;7.70;99.90
3330;DHT22;1677;49.576;10.990;2022-09-29T04:08:18;7.60;99.90
3330;DHT22;1677;49.576;10.990;2022-09-29T04:10:47;7.70;99.90
3330;DHT22;1677;49.576;10.990;2022-09-29T04:13:13;7.80;99.90
3330;DHT22;1677;49.576;10.990;2022-09-29T04:15:39;7.70;99.90
3330;DHT22;1677;49.576;10.990;2022-09-29T04:18:04;7.70;99.90
3330;DHT22;1677;49.576;10.990;2022-09-29T04:20:30;7.70;99.90
3330;DHT22;1677;49.576;10.990;2022-09-29T04:22:56;7.60;99.90
3330;DHT22;1677;49.576;10.990;2022-09-29T04:25:21;7.70;99.90
3330;DHT22;1677;49.576;10.990;2022-09-29T04:27:47;7.60;99.90
3330;DHT22;1677;49.576;10.990;2022-09-29T04:30:13;7.60;99.90
3330;DHT22;1677;49.576;10.990;2022-09-29T04:32:38;7.50;99.90
3330;DHT22;1677;49.576;10.990;2022-09-29T04:35:04;7.60;99.90
3330;DHT22;1677;49.576;10.990;2022-09-29T04:37:30;7.60;99.90
3330;DHT22;1677;49.576;10.990;2022-09-29T04:39:56;7.50;99.90
3330;DHT22;1677;49.576;10.990;2022-09-29T04:42:21;7.60;99.90
3330;DHT22;1677;49.576;10.990;2022-09-29T04:44:47;7.60;99.90
3330;DHT22;1677;49.576;10.990;2022-09-29T04:47:12;7.50;99.90
3330;DHT22;1677;49.576;10.990;2022-09-29T04:49:38;7.50;99.90
3330;DHT22;1677;49.576;10.990;2022-09-29T04:52:04;7.50;99.90
3330;DHT22;1677;49.576;10.990;2022-09-29T04:54:33;7.50;99.90
3330;DHT22;1677;49.576;10.990;2022-09-29T04:56:59;7.50;99.90
3330;DHT22;1677;49.576;10.990;2022-09-29T04:59:26;7.50;99.90
3330;DHT22;1677;49.576;10.990;2022-09-29T05:01:52;7.50;99.90
3330;DHT22;1677;49.576;10.990;2022-09-29T05:04:17;7.60;99.90
3330;DHT22;1677;49.576;10.990;2022-09-29T05:06:43;7.50;99.90
3330;DHT22;1677;49.576;10.990;2022-09-29T05:09:09;7.50;99.90
3330;DHT22;1677;49.576;10.990;2022-09-29T05:11:34;7.50;99.90
3330;DHT22;1677;49.576;10.990;2022-09-29T05:14:00;7.60;99.90
3330;DHT22;1677;49.576;10.990;2022-09-29T05:16:26;7.50;99.90
3330;DHT22;1677;49.576;10.990;2022-09-29T05:18:51;7.50;99.90
3330;DHT22;1677;49.576;10.990;2022-09-29T05:21:17;7.40;99.90
3330;DHT22;1677;49.576;10.990;2022-09-29T05:23:43;7.40;99.90
3330;DHT22;1677;49.576;10.990;2022-09-29T05:26:10;7.40;99.90
3330;DHT22;1677;49.576;10.990;2022-09-29T05:28:37;7.40;99.90
3330;DHT22;1677;49.576;10.990;2022-09-29T05:31:06;7.50;99.90
3330;DHT22;1677;49.576;10.990;2022-09-29T05:33:32;8.00;99.90
3330;DHT22;1677;49.576;10.990;2022-09-29T05:35:58;8.50;99.90
3330;DHT22;1677;49.576;10.990;2022-09-29T05:38:23;8.90;99.90
3330;DHT22;1677;49.576;10.990;2022-09-29T05:40:50;9.40;99.90
3330;DHT22;1677;49.576;10.990;2022-09-29T05:43:16;9.30;99.90
3330;DHT22;1677;49.576;10.990;2022-09-29T05:45:41;9.00;99.90
3330;DHT22;1677;49.576;10.990;2022-09-29T05:48:07;8.50;99.90
3330;DHT22;1677;49.576;10.990;2022-09-29T05:50:33;8.30;99.90
3330;DHT22;1677;49.576;10.990;2022-09-29T05:53:11;8.10;99.90
3330;DHT22;1677;49.576;10.990;2022-09-29T05:55:38;8.00;99.90
3330;DHT22;1677;49.576;10.990;2022-09-29T05:58:05;7.90;99.90
3330;DHT22;1677;49.576;10.990;2022-09-29T06:00:31;7.80;99.90
3330;DHT22;1677;49.576;10.990;2022-09-29T06:02:58;7.80;99.90
3330;DHT22;1677;49.576;10.990;2022-09-29T06:05:24;7.80;99.90
3330;DHT22;1677;49.576;10.990;2022-09-29T06:07:51;7.70;99.90
3330;DHT22;1677;49.576;10.990;2022-09-29T06:10:17;7.80;99.90
3330;DHT22;1677;49.576;10.990;2022-09-29T06:12:42;7.70;99.90
3330;DHT22;1677;49.576;10.990;2022-09-29T06:15:09;7.60;99.90
3330;DHT22;1677;49.576;10.990;2022-09-29T06:17:35;7.70;99.90
3330;DHT22;1677;49.576;10.990;2022-09-29T06:20:01;7.80;99.90
3330;DHT22;1677;49.576;10.990;2022-09-29T06:22:27;7.80;99.90
3330;DHT22;1677;49.576;10.990;2022-09-29T06:24:53;7.70;99.90
3330;DHT22;1677;49.576;10.990;2022-09-29T06:27:19;7.70;99.90
3330;DHT22;1677;49.576;10.990;2022-09-29T06:29:45;7.80;99.90
3330;DHT22;1677;49.576;10.990;2022-09-29T06:32:10;7.80;99.90
3330;DHT22;1677;49.576;10.990;2022-09-29T06:34:36;7.90;99.90
3330;DHT22;1677;49.576;10.990;2022-09-29T06:37:21;7.90;99.90
3330;DHT22;1677;49.576;10.990;2022-09-29T06:40:06;7.90;99.90
3330;DHT22;1677;49.576;10.990;2022-09-29T06:42:33;7.90;99.90
3330;DHT22;1677;49.576;10.990;2022-09-29T06:44:59;8.00;99.90
3330;DHT22;1677;49.576;10.990;2022-09-29T06:47:25;8.10;99.90
3330;DHT22;1677;49.576;10.990;2022-09-29T06:49:50;8.00;99.90
3330;DHT22;1677;49.576;10.990;2022-09-29T06:52:16;8.00;99.90
3330;DHT22;1677;49.576;10.990;2022-09-29T06:54:42;8.10;99.90
3330;DHT22;1677;49.576;10.990;2022-09-29T06:57:08;8.20;99.90
3330;DHT22;1677;49.576;10.990;2022-09-29T06:59:34;8.30;99.90
3330;DHT22;1677;49.576;10.990;2022-09-29T07:02:00;8.30;99.90
3330;DHT22;1677;49.576;10.990;2022-09-29T07:04:25;8.40;99.90
3330;DHT22;1677;49.576;10.990;2022-09-29T07:06:51;8.40;99.90
3330;DHT22;1677;49.576;10.990;2022-09-29T07:09:17;8.10;99.90
3330;DHT22;1677;49.576;10.990;2022-09-29T07:11:46;8.10;99.90
3330;DHT22;1677;49.576;10.990;2022-09-29T07:14:16;8.10;99.90
3330;DHT22;1677;49.576;10.990;2022-09-29T07:16:43;8.20;99.90
3330;DHT22;1677;49.576;10.990;2022-09-29T07:19:08;8.40;99.90
3330;DHT22;1677;49.576;10.990;2022-09-29T07:21:34;8.30;99.90
3330;DHT22;1677;49.576;10.990;2022-09-29T07:24:00;8.40;99.90
3330;DHT22;1677;49.576;10.990;2022-09-29T07:26:26;8.20;99.90
3330;DHT22;1677;49.576;10.990;2022-09-29T07:28:52;8.00;99.90
3330;DHT22;1677;49.576;10.990;2022-09-29T07:31:20;8.60;99.90
3330;DHT22;1677;49.576;10.990;2022-09-29T07:33:47;9.20;99.90
3330;DHT22;1677;49.576;10.990;2022-09-29T07:36:14;9.50;99.90
3330;DHT22;1677;49.576;10.990;2022-09-29T07:38:40;10.50;99.90
3330;DHT22;1677;49.576;10.990;2022-09-29T07:41:09;11.10;99.90
3330;DHT22;1677;49.576;10.990;2022-09-29T07:43:36;10.70;99.90
3330;DHT22;1677;49.576;10.990;2022-09-29T07:46:02;10.30;99.90
3330;DHT22;1677;49.576;10.990;2022-09-29T07:48:29;10.10;99.90
3330;DHT22;1677;49.576;10.990;2022-09-29T07:51:11;9.70;99.90
3330;DHT22;1677;49.576;10.990;2022-09-29T07:53:37;9.60;99.90
3330;DHT22;1677;49.576;10.990;2022-09-29T07:56:17;9.00;99.90
3330;DHT22;1677;49.576;10.990;2022-09-29T07:58:44;8.90;99.90
3330;DHT22;1677;49.576;10.990;2022-09-29T08:01:12;8.90;99.90
3330;DHT22;1677;49.576;10.990;2022-09-29T08:03:41;8.80;99.90
3330;DHT22;1677;49.576;10.990;2022-09-29T08:06:08;9.00;99.90
3330;DHT22;1677;49.576;10.990;2022-09-29T08:08:35;9.10;99.90
3330;DHT22;1677;49.576;10.990;2022-09-29T08:11:06;9.20;99.90
3330;DHT22;1677;49.576;10.990;2022-09-29T08:13:32;9.00;99.90
3330;DHT22;1677;49.576;10.990;2022-09-29T08:15:59;8.90;99.90
3330;DHT22;1677;49.576;10.990;2022-09-29T08:18:26;9.00;99.90
3330;DHT22;1677;49.576;10.990;2022-09-29T08:20:51;9.10;99.90
3330;DHT22;1677;49.576;10.990;2022-09-29T08:23:18;9.40;99.90
3330;DHT22;1677;49.576;10.990;2022-09-29T08:25:44;9.50;99.90
3330;DHT22;1677;49.576;10.990;2022-09-29T08:28:10;9.70;99.90
3330;DHT22;1677;49.576;10.990;2022-09-29T08:30:36;9.80;99.90
3330;DHT22;1677;49.576;10.990;2022-09-29T08:33:02;9.90;99.90
3330;DHT22;1677;49.576;10.990;2022-09-29T08:35:28;9.80;99.90
3330;DHT22;1677;49.576;10.990;2022-09-29T08:37:54;9.80;99.90
3330;DHT22;1677;49.576;10.990;2022-09-29T08:40:22;10.10;99.90
3330;DHT22;1677;49.576;10.990;2022-09-29T08:45:42;10.40;99.90
3330;DHT22;1677;49.576;10.990;2022-09-29T08:48:22;10.60;99.90
3330;DHT22;1677;49.576;10.990;2022-09-29T08:51:03;10.50;99.90
3330;DHT22;1677;49.576;10.990;2022-09-29T08:53:32;10.50;99.90
3330;DHT22;1677;49.576;10.990;2022-09-29T08:56:03;10.50;99.90
3330;DHT22;1677;49.576;10.990;2022-09-29T08:58:30;10.70;99.90
3330;DHT22;1677;49.576;10.990;2022-09-29T09:03:58;10.80;99.90
3330;DHT22;1677;49.576;10.990;2022-09-29T09:06:49;11.30;99.90
3330;DHT22;1677;49.576;10.990;2022-09-29T09:12:23;13.00;99.90
3330;DHT22;1677;49.576;10.990;2022-09-29T09:20:34;13.30;99.90
3330;DHT22;1677;49.576;10.990;2022-09-29T09:24:09;13.00;99.90
3330;DHT22;1677;49.576;10.990;2022-09-29T09:26:05;12.60;99.90
3330;DHT22;1677;49.576;10.990;2022-09-29T09:31:17;12.40;99.90
3330;DHT22;1677;49.576;10.990;2022-09-29T09:33:51;12.30;99.90
3330;DHT22;1677;49.576;10.990;2022-09-29T09:36:24;12.30;99.90
3330;DHT22;1677;49.576;10.990;2022-09-29T09:41:24;12.10;99.90
3330;DHT22;1677;49.576;10.990;2022-09-29T09:44:00;11.90;99.90
3330;DHT22;1677;49.576;10.990;2022-09-29T09:46:37;12.00;99.90
3330;DHT22;1677;49.576;10.990;2022-09-29T09:52:01;12.20;99.90
3330;DHT22;1677;49.576;10.990;2022-09-29T09:54:37;12.20;99.90
3330;DHT22;1677;49.576;10.990;2022-09-29T09:59:58;12.40;99.90
3330;DHT22;1677;49.576;10.990;2022-09-29T10:02:28;12.40;99.90
3330;DHT22;1677;49.576;10.990;2022-09-29T10:04:54;12.60;99.90
3330;DHT22;1677;49.576;10.990;2022-09-29T10:07:22;12.50;99.90
3330;DHT22;1677;49.576;10.990;2022-09-29T10:09:49;12.50;99.90
3330;DHT22;1677;49.576;10.990;2022-09-29T10:12:20;12.80;99.90
3330;DHT22;1677;49.576;10.990;2022-09-29T10:17:45;13.40;99.90
3330;DHT22;1677;49.576;10.990;2022-09-29T10:20:12;13.20;99.90
3330;DHT22;1677;49.576;10.990;2022-09-29T10:22:38;13.10;99.90
3330;DHT22;1677;49.576;10.990;2022-09-29T10:25:17;13.50;99.90
3330;DHT22;1677;49.576;10.990;2022-09-29T10:27:46;14.70;99.90
3330;DHT22;1677;49.576;10.990;2022-09-29T10:30:22;15.00;99.90
3330;DHT22;1677;49.576;10.990;2022-09-29T10:32:50;16.10;99.90
3330;DHT22;1677;49.576;10.990;2022-09-29T10:35:25;16.60;99.90
3330;DHT22;1677;49.576;10.990;2022-09-29T10:38:05;16.30;99.90
3330;DHT22;1677;49.576;10.990;2022-09-29T10:40:32;15.80;99.90
3330;DHT22;1677;49.576;10.990;2022-09-29T10:43:21;14.70;99.90
3330;DHT22;1677;49.576;10.990;2022-09-29T10:45:48;14.00;99.90
3330;DHT22;1677;49.576;10.990;2022-09-29T10:48:14;13.70;99.90
3330;DHT22;1677;49.576;10.990;2022-09-29T10:50:55;13.80;99.90
3330;DHT22;1677;49.576;10.990;2022-09-29T10:53:41;13.90;99.90
3330;DHT22;1677;49.576;10.990;2022-09-29T10:58:58;14.20;99.90
3330;DHT22;1677;49.576;10.990;2022-09-29T11:01:25;14.30;99.90
3330;DHT22;1677;49.576;10.990;2022-09-29T11:06:37;14.10;99.90
3330;DHT22;1677;49.576;10.990;2022-09-29T11:09:26;14.30;99.90
3330;DHT22;1677;49.576;10.990;2022-09-29T11:11:54;14.00;99.90
3330;DHT22;1677;49.576;10.990;2022-09-29T11:17:26;13.70;99.90
3330;DHT22;1677;49.576;10.990;2022-09-29T11:19:55;13.40;99.90
3330;DHT22;1677;49.576;10.990;2022-09-29T11:33:48;14.00;99.90
3330;DHT22;1677;49.576;10.990;2022-09-29T11:36:54;14.00;99.90
3330;DHT22;1677;49.576;10.990;2022-09-29T11:39:51;14.20;99.90
3330;DHT22;1677;49.576;10.990;2022-09-29T11:48:23;16.00;99.90
3330;DHT22;1677;49.576;10.990;2022-09-29T11:50:56;15.40;99.90
3330;DHT22;1677;49.576;10.990;2022-09-29T11:53:35;15.40;99.90
3330;DHT22;1677;49.576;10.990;2022-09-29T11:58:50;15.00;99.90
3330;DHT22;1677;49.576;10.990;2022-09-29T12:01:29;14.70;99.90
3330;DHT22;1677;49.576;10.990;2022-09-29T12:15:20;14.00;99.90
3330;DHT22;1677;49.576;10.990;2022-09-29T12:17:19;13.90;99.90
3330;DHT22;1677;49.576;10.990;2022-09-29T12:19:52;13.80;99.90
3330;DHT22;1677;49.576;10.990;2022-09-29T12:22:19;13.70;99.90
3330;DHT22;1677;49.576;10.990;2022-09-29T12:24:47;13.80;99.90
3330;DHT22;1677;49.576;10.990;2022-09-29T12:27:23;13.80;99.90
3330;DHT22;1677;49.576;10.990;2022-09-29T12:30:05;13.80;99.90
3330;DHT22;1677;49.576;10.990;2022-09-29T12:32:41;13.90;99.90
3330;DHT22;1677;49.576;10.990;2022-09-29T12:35:15;13.90;99.90
3330;DHT22;1677;49.576;10.990;2022-09-29T12:38:10;13.90;99.90
3330;DHT22;1677;49.576;10.990;2022-09-29T12:40:47;13.90;99.90
3330;DHT22;1677;49.576;10.990;2022-09-29T12:43:33;13.90;99.90
3330;DHT22;1677;49.576;10.990;2022-09-29T12:46:11;14.20;99.90
3330;DHT22;1677;49.576;10.990;2022-09-29T12:51:40;15.60;99.90
3330;DHT22;1677;49.576;10.990;2022-09-29T13:01:42;16.10;97.20
3330;DHT22;1677;49.576;10.990;2022-09-29T13:10:04;15.00;99.90
3330;DHT22;1677;49.576;10.990;2022-09-29T13:12:52;14.70;99.90
3330;DHT22;1677;49.576;10.990;2022-09-29T13:20:42;14.20;99.90
3330;DHT22;1677;49.576;10.990;2022-09-29T13:26:48;14.10;99.90
3330;DHT22;1677;49.576;10.990;2022-09-29T13:29:20;14.10;99.90
3330;DHT22;1677;49.576;10.990;2022-09-29T13:31:47;14.10;99.90
3330;DHT22;1677;49.576;10.990;2022-09-29T13:36:52;14.00;99.90
3330;DHT22;1677;49.576;10.990;2022-09-29T13:39:26;14.00;99.90
3330;DHT22;1677;49.576;10.990;2022-09-29T13:41:53;14.00;99.90
3330;DHT22;1677;49.576;10.990;2022-09-29T13:44:25;13.90;99.90
3330;DHT22;1677;49.576;10.990;2022-09-29T13:46:52;13.80;99.90
3330;DHT22;1677;49.576;10.990;2022-09-29T13:49:24;13.60;99.90
3330;DHT22;1677;49.576;10.990;2022-09-29T13:51:52;13.40;99.90
3330;DHT22;1677;49.576;10.990;2022-09-29T14:02:41;15.10;99.90
3330;DHT22;1677;49.576;10.990;2022-09-29T14:08:21;15.40;99.90
3330;DHT22;1677;49.576;10.990;2022-09-29T14:11:13;14.80;99.90
3330;DHT22;1677;49.576;10.990;2022-09-29T14:16:25;13.90;99.90
3330;DHT22;1677;49.576;10.990;2022-09-29T14:19:01;13.70;99.90
3330;DHT22;1677;49.576;10.990;2022-09-29T14:21:55;13.40;99.90
3330;DHT22;1677;49.576;10.990;2022-09-29T14:24:44;13.20;99.90
3330;DHT22;1677;49.576;10.990;2022-09-29T14:27:32;13.00;99.90
3330;DHT22;1677;49.576;10.990;2022-09-29T14:30:17;13.10;99.90
3330;DHT22;1677;49.576;10.990;2022-09-29T14:35:42;12.60;99.90
3330;DHT22;1677;49.576;10.990;2022-09-29T14:40:37;12.30;99.90
3330;DHT22;1677;49.576;10.990;2022-09-29T14:43:15;12.30;99.90
3330;DHT22;1677;49.576;10.990;2022-09-29T14:52:41;12.60;99.90
3330;DHT22;1677;49.576;10.990;2022-09-29T15:00:18;12.60;99.90
3330;DHT22;1677;49.576;10.990;2022-09-29T15:02:50;12.70;99.90
3330;DHT22;1677;49.576;10.990;2022-09-29T15:05:32;12.80;99.90
3330;DHT22;1677;49.576;10.990;2022-09-29T15:07:59;13.40;99.90
3330;DHT22;1677;49.576;10.990;2022-09-29T15:10:31;14.00;99.90
3330;DHT22;1677;49.576;10.990;2022-09-29T15:13:25;14.30;99.90
3330;DHT22;1677;49.576;10.990;2022-09-29T15:16:16;14.90;99.90
3330;DHT22;1677;49.576;10.990;2022-09-29T15:21:58;14.90;99.90
3330;DHT22;1677;49.576;10.990;2022-09-29T15:24:43;14.40;99.90
3330;DHT22;1677;49.576;10.990;2022-09-29T15:27:13;14.00;99.90
3330;DHT22;1677;49.576;10.990;2022-09-29T15:29:43;13.50;99.90
3330;DHT22;1677;49.576;10.990;2022-09-29T15:32:22;13.40;99.90
3330;DHT22;1677;49.576;10.990;2022-09-29T15:34:50;13.30;99.90
3330;DHT22;1677;49.576;10.990;2022-09-29T15:37:16;13.10;99.90
3330;DHT22;1677;49.576;10.990;2022-09-29T15:39:51;13.10;99.90
3330;DHT22;1677;49.576;10.990;2022-09-29T15:42:21;13.00;99.90
3330;DHT22;1677;49.576;10.990;2022-09-29T15:45:01;12.70;99.90
3330;DHT22;1677;49.576;10.990;2022-09-29T15:47:38;12.60;99.90
3330;DHT22;1677;49.576;10.990;2022-09-29T15:52:44;12.40;99.90
3330;DHT22;1677;49.576;10.990;2022-09-29T15:55:13;12.50;99.90
3330;DHT22;1677;49.576;10.990;2022-09-29T15:57:41;12.40;99.90
3330;DHT22;1677;49.576;10.990;2022-09-29T16:03:23;12.40;99.90
3330;DHT22;1677;49.576;10.990;2022-09-29T16:06:04;12.40;99.90
3330;DHT22;1677;49.576;10.990;2022-09-29T16:08:33;12.30;99.90
3330;DHT22;1677;49.576;10.990;2022-09-29T16:11:02;12.20;99.90
3330;DHT22;1677;49.576;10.990;2022-09-29T16:13:39;12.20;99.90
3330;DHT22;1677;49.576;10.990;2022-09-29T16:16:08;12.20;99.90
3330;DHT22;1677;49.576;10.990;2022-09-29T16:18:43;12.30;99.90
3330;DHT22;1677;49.576;10.990;2022-09-29T16:21:13;12.80;99.90
3330;DHT22;1677;49.576;10.990;2022-09-29T16:28:37;13.80;99.90
3330;DHT22;1677;49.576;10.990;2022-09-29T16:31:16;14.30;99.90
3330;DHT22;1677;49.576;10.990;2022-09-29T16:33:46;14.50;99.90
3330;DHT22;1677;49.576;10.990;2022-09-29T16:36:21;14.20;99.90
3330;DHT22;1677;49.576;10.990;2022-09-29T16:38:47;13.80;99.90
3330;DHT22;1677;49.576;10.990;2022-09-29T16:41:33;13.50;99.90
3330;DHT22;1677;49.576;10.990;2022-09-29T16:44:25;13.10;99.90
3330;DHT22;1677;49.576;10.990;2022-09-29T16:47:14;12.90;99.90
3330;DHT22;1677;49.576;10.990;2022-09-29T16:49:49;12.70;99.90
3330;DHT22;1677;49.576;10.990;2022-09-29T16:52:32;12.50;99.90
3330;DHT22;1677;49.576;10.990;2022-09-29T16:57:53;12.20;99.90
3330;DHT22;1677;49.576;10.990;2022-09-29T17:00:19;12.10;99.90
3330;DHT22;1677;49.576;10.990;2022-09-29T17:02:55;12.10;99.90
3330;DHT22;1677;49.576;10.990;2022-09-29T17:05:23;12.10;99.90
3330;DHT22;1677;49.576;10.990;2022-09-29T17:07:50;12.10;99.90
3330;DHT22;1677;49.576;10.990;2022-09-29T17:10:24;12.00;99.90
3330;DHT22;1677;49.576;10.990;2022-09-29T17:12:49;12.00;99.90
3330;DHT22;1677;49.576;10.990;2022-09-29T17:15:16;12.00;99.90
3330;DHT22;1677;49.576;10.990;2022-09-29T17:17:46;12.00;99.90
3330;DHT22;1677;49.576;10.990;2022-09-29T17:20:14;11.90;99.90
3330;DHT22;1677;49.576;10.990;2022-09-29T17:22:40;11.80;99.90
3330;DHT22;1677;49.576;10.990;2022-09-29T17:25:08;11.80;99.90
3330;DHT22;1677;49.576;10.990;2022-09-29T17:27:35;11.80;99.90
3330;DHT22;1677;49.576;10.990;2022-09-29T17:30:21;11.80;99.90
3330;DHT22;1677;49.576;10.990;2022-09-29T17:32:49;11.70;99.90
3330;DHT22;1677;49.576;10.990;2022-09-29T17:35:17;12.00;99.90
3330;DHT22;1677;49.576;10.990;2022-09-29T17:37:44;12.70;99.90
3330;DHT22;1677;49.576;10.990;2022-09-29T17:42:51;14.10;99.90
3330;DHT22;1677;49.576;10.990;2022-09-29T17:45:19;14.50;99.90
3330;DHT22;1677;49.576;10.990;2022-09-29T17:47:45;14.20;99.90
3330;DHT22;1677;49.576;10.990;2022-09-29T17:52:49;13.60;99.90
3330;DHT22;1677;49.576;10.990;2022-09-29T17:55:15;13.20;99.90
3330;DHT22;1677;49.576;10.990;2022-09-29T17:57:40;13.00;99.90
3330;DHT22;1677;49.576;10.990;2022-09-29T18:00:36;12.80;99.90
3330;DHT22;1677;49.576;10.990;2022-09-29T18:03:04;12.60;99.90
3330;DHT22;1677;49.576;10.990;2022-09-29T18:05:30;12.20;99.90
3330;DHT22;1677;49.576;10.990;2022-09-29T18:07:57;12.10;99.90
3330;DHT22;1677;49.576;10.990;2022-09-29T18:12:59;11.60;99.90
3330;DHT22;1677;49.576;10.990;2022-09-29T18:15:25;11.40;99.90
3330;DHT22;1677;49.576;10.990;2022-09-29T18:17:56;11.40;99.90
3330;DHT22;1677;49.576;10.990;2022-09-29T18:20:23;11.30;99.90
3330;DHT22;1677;49.576;10.990;2022-09-29T18:22:50;11.30;99.90
3330;DHT22;1677;49.576;10.990;2022-09-29T18:25:17;11.20;99.90
3330;DHT22;1677;49.576;10.990;2022-09-29T18:27:44;11.00;99.90
3330;DHT22;1677;49.576;10.990;2022-09-29T18:30:19;11.10;99.90
3330;DHT22;1677;49.576;10.990;2022-09-29T18:32:46;11.10;99.90
3330;DHT22;1677;49.576;10.990;2022-09-29T18:35:15;11.00;99.90
3330;DHT22;1677;49.576;10.990;2022-09-29T18:37:40;11.00;99.90
3330;DHT22;1677;49.576;10.990;2022-09-29T18:40:06;10.90;99.90
3330;DHT22;1677;49.576;10.990;2022-09-29T18:42:32;10.80;99.90
3330;DHT22;1677;49.576;10.990;2022-09-29T18:44:59;10.80;99.90
3330;DHT22;1677;49.576;10.990;2022-09-29T18:47:24;10.80;99.90
3330;DHT22;1677;49.576;10.990;2022-09-29T18:49:50;11.20;99.90
3330;DHT22;1677;49.576;10.990;2022-09-29T18:52:16;11.70;99.90
3330;DHT22;1677;49.576;10.990;2022-09-29T18:54:42;12.10;99.90
3330;DHT22;1677;49.576;10.990;2022-09-29T18:57:11;12.60;99.90
3330;DHT22;1677;49.576;10.990;2022-09-29T18:59:38;12.60;99.90
3330;DHT22;1677;49.576;10.990;2022-09-29T19:02:03;12.50;99.90
3330;DHT22;1677;49.576;10.990;2022-09-29T19:04:29;12.00;99.90
3330;DHT22;1677;49.576;10.990;2022-09-29T19:06:54;12.00;99.90
3330;DHT22;1677;49.576;10.990;2022-09-29T19:09:20;11.80;99.90
3330;DHT22;1677;49.576;10.990;2022-09-29T19:11:45;11.60;99.90
3330;DHT22;1677;49.576;10.990;2022-09-29T19:14:12;11.50;99.90
3330;DHT22;1677;49.576;10.990;2022-09-29T19:16:38;11.40;99.90
3330;DHT22;1677;49.576;10.990;2022-09-29T19:19:03;11.30;99.90
3330;DHT22;1677;49.576;10.990;2022-09-29T19:21:31;11.00;99.90